createdAt,value
2023-02-22T00:01:23.067Z,3.97
2023-02-22T00:03:52.139Z,3.70
2023-02-22T00:06:25.807Z,4.00
2023-02-22T00:08:53.831Z,3.97
2023-02-22T00:11:21.762Z,4.07
2023-02-22T00:13:50.571Z,3.88
2023-02-22T00:16:22.181Z,4.25
2023-02-22T00:18:50.223Z,3.83
2023-02-22T00:21:19.481Z,3.38
2023-02-22T00:23:49.221Z,3.70
2023-02-22T00:26:21.631Z,3.63
2023-02-22T00:28:52.033Z,4.95
2023-02-22T00:31:20.301Z,3.90
2023-02-22T00:33:47.587Z,4.60
2023-02-22T00:36:15.479Z,4.28
2023-02-22T00:38:45.812Z,4.70
2023-02-22T00:41:15.827Z,5.40
2023-02-22T00:43:44.378Z,4.97
2023-02-22T00:46:13.947Z,5.40
2023-02-22T00:48:40.927Z,4.97
2023-02-22T00:51:08.082Z,5.18
2023-02-22T00:53:34.942Z,6.13
2023-02-22T00:56:01.854Z,5.93
2023-02-22T00:58:28.798Z,6.65
2023-02-22T01:00:55.669Z,7.55
2023-02-22T01:03:26.147Z,5.65
2023-02-22T01:05:54.662Z,5.22
2023-02-22T01:08:21.675Z,5.80
2023-02-22T01:10:48.573Z,5.95
2023-02-22T01:13:22.137Z,6.43
2023-02-22T01:15:49.221Z,5.90
2023-02-22T01:18:19.716Z,6.43
2023-02-22T01:20:48.109Z,5.78
2023-02-22T01:23:17.632Z,5.32
2023-02-22T01:25:45.338Z,5.43
2023-02-22T01:28:14.004Z,5.07
2023-02-22T01:30:41.202Z,5.22
2023-02-22T01:33:09.808Z,5.22
2023-02-22T01:35:40.857Z,4.60
2023-02-22T01:38:11.503Z,5.13
2023-02-22T01:40:44.662Z,5.30
2023-02-22T01:43:29.552Z,5.22
2023-02-22T01:46:06.124Z,5.00
2023-02-22T01:48:55.045Z,5.35
2023-02-22T01:51:29.042Z,6.10
2023-02-22T01:54:10.231Z,6.00
2023-02-22T01:56:46.653Z,6.40
2023-02-22T01:59:17.072Z,6.32
2023-02-22T02:01:44.881Z,6.97
2023-02-22T02:04:20.566Z,6.90
2023-02-22T02:06:50.520Z,6.38
2023-02-22T02:09:32.370Z,5.93
2023-02-22T02:12:07.342Z,6.60
2023-02-22T02:14:34.441Z,5.90
2023-02-22T02:17:03.160Z,5.50
2023-02-22T02:20:11.843Z,5.53
2023-02-22T02:23:01.179Z,5.22
2023-02-22T02:26:10.223Z,5.10
2023-02-22T02:28:59.425Z,5.10
2023-02-22T02:31:53.969Z,5.38
2023-02-22T02:35:06.273Z,5.03
2023-02-22T02:38:11.445Z,5.18
2023-02-22T02:41:18.832Z,5.32
2023-02-22T02:43:58.533Z,5.50
2023-02-22T02:47:01.730Z,6.30
2023-02-22T02:49:55.949Z,6.13
2023-02-22T02:52:27.385Z,5.90
2023-02-22T02:54:57.572Z,6.47
2023-02-22T02:57:26.707Z,5.95
2023-02-22T02:59:54.684Z,6.32
2023-02-22T03:03:04.563Z,7.82
2023-02-22T03:05:55.865Z,6.38
2023-02-22T03:08:52.764Z,7.20
2023-02-22T03:11:31.713Z,7.65
2023-02-22T03:14:24.664Z,7.72
2023-02-22T03:17:33.899Z,6.63
2023-02-22T03:20:37.182Z,9.63
2023-02-22T03:23:15.821Z,8.55
2023-02-22T03:25:53.233Z,7.57
2023-02-22T03:28:26.568Z,6.57
2023-02-22T03:31:10.891Z,7.25
2023-02-22T03:33:46.021Z,7.20
2023-02-22T03:36:25.006Z,5.95
2023-02-22T03:38:55.678Z,5.72
2023-02-22T03:41:25.933Z,5.93
2023-02-22T03:44:24.585Z,5.90
2023-02-22T03:46:56.820Z,5.35
2023-02-22T03:49:40.802Z,5.82
2023-02-22T03:52:12.828Z,5.80
2023-02-22T03:54:41.713Z,4.83
2023-02-22T03:57:21.336Z,7.03
2023-02-22T03:59:48.932Z,7.18
2023-02-22T04:02:18.982Z,7.32
2023-02-22T04:04:47.687Z,8.10
2023-02-22T04:07:16.721Z,9.00
2023-02-22T04:09:43.706Z,7.95
2023-02-22T04:12:10.612Z,7.90
2023-02-22T04:14:39.755Z,7.85
2023-02-22T04:17:06.621Z,7.55
2023-02-22T04:19:33.493Z,8.25
2023-02-22T04:22:01.628Z,10.90
2023-02-22T04:24:30.600Z,10.57
2023-02-22T04:26:57.632Z,10.90
2023-02-22T04:29:24.482Z,12.20
2023-02-22T04:31:52.662Z,12.63
2023-02-22T04:34:19.529Z,12.02
2023-02-22T04:36:46.402Z,12.48
2023-02-22T04:39:13.374Z,14.88
2023-02-22T04:41:40.615Z,15.73
2023-02-22T04:44:07.659Z,17.63
2023-02-22T04:46:34.741Z,16.60
2023-02-22T04:49:01.591Z,13.88
2023-02-22T04:51:28.459Z,12.98
2023-02-22T04:53:55.328Z,11.57
2023-02-22T04:56:22.368Z,12.05
2023-02-22T04:58:49.255Z,11.05
2023-02-22T05:01:17.174Z,10.82
2023-02-22T05:03:44.208Z,10.80
2023-02-22T05:06:12.418Z,10.52
2023-02-22T05:08:39.288Z,10.57
2023-02-22T05:11:06.493Z,9.55
2023-02-22T05:13:33.454Z,9.20
2023-02-22T05:16:00.352Z,9.60
2023-02-22T05:18:27.961Z,8.60
2023-02-22T05:20:54.790Z,8.80
2023-02-22T05:23:21.630Z,9.15
2023-02-22T05:25:48.441Z,9.48
2023-02-22T05:28:16.931Z,9.00
2023-02-22T05:30:43.982Z,8.27
2023-02-22T05:33:10.997Z,8.57
2023-02-22T05:50:14.023Z,10.85
2023-02-22T05:52:42.089Z,9.95
2023-02-22T05:55:11.673Z,9.23
2023-02-22T05:57:38.760Z,8.55
2023-02-22T06:00:08.327Z,10.85
2023-02-22T06:02:35.608Z,12.98
2023-02-22T06:05:03.188Z,14.93
2023-02-22T06:07:30.092Z,14.93
2023-02-22T06:09:57.182Z,12.00
2023-02-22T06:12:24.220Z,12.00
2023-02-22T06:14:51.477Z,14.85
2023-02-22T06:17:20.536Z,11.10
2023-02-22T06:19:47.724Z,11.10
2023-02-22T06:22:20.193Z,9.23
2023-02-22T06:24:47.249Z,10.18
2023-02-22T06:27:14.610Z,10.88
2023-02-22T06:29:46.954Z,11.70
2023-02-22T06:32:15.219Z,12.93
2023-02-22T06:34:42.295Z,17.20
2023-02-22T06:37:09.612Z,17.35
2023-02-22T06:39:36.620Z,16.55
2023-02-22T06:42:03.787Z,15.70
2023-02-22T06:44:30.916Z,14.57
2023-02-22T06:46:59.658Z,15.52
2023-02-22T06:49:28.278Z,13.85
2023-02-22T06:51:55.846Z,13.50
2023-02-22T06:54:23.701Z,14.32
2023-02-22T06:56:50.759Z,14.05
2023-02-22T06:59:17.910Z,17.23
2023-02-22T07:01:45.645Z,21.45
2023-02-22T07:04:12.725Z,20.35
2023-02-22T07:06:39.761Z,18.48
2023-02-22T07:09:06.816Z,16.65
2023-02-22T07:11:33.870Z,16.77
2023-02-22T07:14:00.936Z,16.83
2023-02-22T07:16:28.055Z,16.20
2023-02-22T07:18:55.015Z,16.33
2023-02-22T07:21:22.066Z,15.98
2023-02-22T07:23:57.202Z,17.08
2023-02-22T07:26:25.173Z,19.33
2023-02-22T07:28:52.206Z,17.33
2023-02-22T07:31:19.463Z,16.05
2023-02-22T07:33:47.903Z,19.45
2023-02-22T07:36:17.889Z,23.02
2023-02-22T07:38:46.222Z,20.55
2023-02-22T07:41:13.567Z,19.35
2023-02-22T07:43:40.631Z,16.55
2023-02-22T07:46:07.941Z,15.45
2023-02-22T07:48:34.919Z,15.95
2023-02-22T07:51:01.931Z,15.57
2023-02-22T07:53:33.565Z,16.27
2023-02-22T07:56:05.259Z,17.17
2023-02-22T07:58:33.213Z,18.13
2023-02-22T08:01:02.267Z,18.35
2023-02-22T08:03:37.905Z,16.58
2023-02-22T08:06:07.823Z,14.65
2023-02-22T08:08:35.007Z,14.48
2023-02-22T08:11:02.166Z,14.07
2023-02-22T08:13:29.678Z,13.35
2023-02-22T08:15:57.033Z,13.95
2023-02-22T08:18:25.791Z,15.63
2023-02-22T08:20:54.773Z,17.35
2023-02-22T08:23:25.489Z,17.95
2023-02-22T08:25:53.376Z,18.52
2023-02-22T08:28:24.295Z,17.63
2023-02-22T08:30:52.119Z,19.90
2023-02-22T08:33:20.236Z,23.98
2023-02-22T08:35:52.491Z,21.35
2023-02-22T08:38:28.492Z,23.55
2023-02-22T08:40:56.571Z,25.55
2023-02-22T08:43:24.218Z,26.77
2023-02-22T08:45:52.465Z,25.88
2023-02-22T08:48:20.742Z,28.98
2023-02-22T08:50:47.810Z,27.98
2023-02-22T08:53:16.453Z,29.48
2023-02-22T08:55:44.669Z,27.85
2023-02-22T08:58:13.200Z,24.23
2023-02-22T09:00:42.470Z,23.92
2023-02-22T09:03:14.025Z,22.80
2023-02-22T09:05:44.861Z,22.65
2023-02-22T09:08:12.585Z,21.17
2023-02-22T09:10:40.800Z,27.30
2023-02-22T09:13:08.314Z,27.40
2023-02-22T09:15:39.732Z,29.67
2023-02-22T09:18:11.619Z,32.33
2023-02-22T09:20:38.848Z,32.53
2023-02-22T09:23:09.918Z,18.88
2023-02-22T09:25:38.807Z,23.05
2023-02-22T09:28:06.217Z,22.88
2023-02-22T09:30:36.241Z,21.35
2023-02-22T09:33:11.507Z,16.02
2023-02-22T09:35:46.361Z,15.45
2023-02-22T09:38:17.857Z,15.07
2023-02-22T09:41:34.584Z,11.73
2023-02-22T09:44:18.140Z,9.43
2023-02-22T09:46:47.360Z,8.90
2023-02-22T09:49:22.164Z,8.43
2023-02-22T09:52:21.067Z,10.70
2023-02-22T09:55:00.639Z,9.10
2023-02-22T09:57:38.018Z,7.28
2023-02-22T10:00:16.931Z,8.45
2023-02-22T10:03:11.505Z,8.88
2023-02-22T10:05:43.807Z,10.52
2023-02-22T10:08:19.064Z,9.48
2023-02-22T10:10:57.749Z,9.35
2023-02-22T10:13:52.010Z,10.70
2023-02-22T10:16:37.048Z,8.45
2023-02-22T10:19:11.129Z,8.15
2023-02-22T10:22:00.791Z,7.75
2023-02-22T10:25:13.984Z,7.88
2023-02-22T10:27:52.111Z,6.18
2023-02-22T10:30:38.984Z,6.03
2023-02-22T10:33:20.789Z,6.40
2023-02-22T10:35:49.022Z,5.70
2023-02-22T10:38:24.857Z,6.82
2023-02-22T10:41:31.963Z,7.10
2023-02-22T10:43:59.721Z,5.60
2023-02-22T10:46:30.676Z,5.78
2023-02-22T10:49:07.465Z,6.15
2023-02-22T10:51:35.217Z,5.85
2023-02-22T10:54:20.046Z,5.45
2023-02-22T10:56:54.986Z,5.40
2023-02-22T10:59:36.185Z,5.38
2023-02-22T11:02:30.434Z,4.82
2023-02-22T11:05:01.042Z,5.30
2023-02-22T11:07:37.241Z,5.25
2023-02-22T11:10:10.718Z,4.70
2023-02-22T11:12:47.864Z,4.65
2023-02-22T11:15:17.721Z,5.03
2023-02-22T11:17:48.528Z,5.10
2023-02-22T11:20:28.976Z,5.50
2023-02-22T11:23:01.264Z,4.05
2023-02-22T11:25:36.772Z,3.88
2023-02-22T11:28:15.103Z,3.92
2023-02-22T11:30:44.587Z,3.85
2023-02-22T11:33:25.998Z,3.65
2023-02-22T11:35:54.765Z,3.90
2023-02-22T11:38:29.137Z,3.55
2023-02-22T11:41:17.883Z,3.83
2023-02-22T11:43:48.897Z,3.70
2023-02-22T11:46:34.947Z,3.90
2023-02-22T11:49:09.172Z,3.58
2023-02-22T11:52:13.405Z,3.53
2023-02-22T11:55:01.915Z,3.80
2023-02-22T11:57:55.861Z,10.95
2023-02-22T12:00:44.907Z,4.15
2023-02-22T12:03:28.937Z,4.18
2023-02-22T12:06:46.379Z,4.00
2023-02-22T12:09:43.077Z,3.67
2023-02-22T12:12:43.973Z,3.83
2023-02-22T12:15:29.723Z,2.47
2023-02-22T12:18:05.323Z,3.00
2023-02-22T12:21:02.158Z,3.45
2023-02-22T12:24:07.295Z,3.75
2023-02-22T12:26:52.565Z,3.17
2023-02-22T12:30:14.573Z,4.20
2023-02-22T12:32:48.706Z,3.28
2023-02-22T12:35:42.726Z,3.90
2023-02-22T12:38:33.958Z,3.95
2023-02-22T12:41:38.433Z,4.22
2023-02-22T12:44:21.465Z,3.50
2023-02-22T12:46:53.490Z,3.25
2023-02-22T12:49:47.544Z,3.17
2023-02-22T12:52:40.581Z,2.50
2023-02-22T12:55:21.887Z,3.42
2023-02-22T12:58:06.950Z,3.35
2023-02-22T13:00:50.906Z,2.80
2023-02-22T13:03:39.431Z,2.60
2023-02-22T13:06:36.412Z,2.20
2023-02-22T13:09:37.572Z,2.40
2023-02-22T13:12:33.453Z,2.15
2023-02-22T13:15:41.598Z,3.63
2023-02-22T13:18:50.724Z,2.30
2023-02-22T13:21:47.948Z,2.20
2023-02-22T13:24:55.005Z,1.98
2023-02-22T13:27:55.695Z,2.47
2023-02-22T13:30:38.358Z,2.50
2023-02-22T13:33:36.653Z,2.60
2023-02-22T13:36:38.746Z,2.42
2023-02-22T13:39:34.502Z,2.40
2023-02-22T13:42:29.006Z,2.65
2023-02-22T13:45:48.945Z,2.38
2023-02-22T13:48:33.028Z,2.88
2023-02-22T13:51:33.228Z,2.90
2023-02-22T13:54:15.441Z,3.17
2023-02-22T13:56:47.557Z,2.80
2023-02-22T13:59:37.716Z,3.10
2023-02-22T14:02:08.185Z,4.00
2023-02-22T14:04:43.072Z,5.93
2023-02-22T14:07:22.147Z,6.07
2023-02-22T14:09:53.137Z,4.22
2023-02-22T14:12:35.906Z,4.05
2023-02-22T14:15:31.004Z,4.28
2023-02-22T14:18:02.012Z,4.38
2023-02-22T14:20:38.314Z,3.80
2023-02-22T14:23:40.907Z,4.10
2023-02-22T14:26:30.865Z,4.20
2023-02-22T14:29:09.711Z,4.85
2023-02-22T14:31:50.311Z,4.25
2023-02-22T14:34:22.674Z,3.97
2023-02-22T14:37:09.563Z,4.18
2023-02-22T14:40:18.409Z,4.88
2023-02-22T14:43:06.631Z,4.10
2023-02-22T14:45:43.626Z,4.38
2023-02-22T14:48:25.180Z,4.35
2023-02-22T14:51:11.770Z,4.43
2023-02-22T14:54:28.832Z,4.53
2023-02-22T14:57:32.567Z,4.22
2023-02-22T15:02:57.551Z,3.95
2023-02-22T15:05:33.656Z,3.65
2023-02-22T15:08:06.184Z,3.90
2023-02-22T15:10:49.028Z,3.35
2023-02-22T15:13:27.812Z,3.78
2023-02-22T15:16:16.823Z,4.20
2023-02-22T15:18:48.645Z,5.57
2023-02-22T15:21:25.295Z,5.65
2023-02-22T15:24:07.738Z,4.18
2023-02-22T15:26:51.934Z,4.65
2023-02-22T15:29:40.981Z,5.60
2023-02-22T15:32:30.293Z,4.50
2023-02-22T15:35:27.063Z,4.55
2023-02-22T15:38:28.730Z,5.60
2023-02-22T15:41:05.185Z,7.53
2023-02-22T15:43:33.657Z,7.07
2023-02-22T15:46:01.891Z,7.07
2023-02-22T15:48:32.493Z,5.93
2023-02-22T15:51:15.668Z,5.78
2023-02-22T15:53:46.967Z,5.43
2023-02-22T15:56:31.180Z,7.97
2023-02-22T15:59:16.422Z,4.90
2023-02-22T16:01:47.503Z,5.85
2023-02-22T16:04:23.791Z,7.05
2023-02-22T16:07:02.928Z,6.72
2023-02-22T16:09:35.979Z,6.10
2023-02-22T16:12:31.852Z,6.10
2023-02-22T16:15:00.803Z,6.15
2023-02-22T16:17:37.749Z,9.60
2023-02-22T16:20:17.848Z,11.38
2023-02-22T16:22:49.539Z,13.13
2023-02-22T16:25:19.687Z,12.98
2023-02-22T16:27:58.043Z,12.95
2023-02-22T16:30:29.839Z,11.80
2023-02-22T16:32:57.989Z,10.30
2023-02-22T16:35:30.102Z,8.43
2023-02-22T16:38:01.610Z,6.40
2023-02-22T16:40:47.228Z,7.55
2023-02-22T16:43:29.571Z,8.07
2023-02-22T16:45:57.272Z,5.43
2023-02-22T16:48:30.937Z,7.13
2023-02-22T16:51:06.464Z,6.70
2023-02-22T16:53:33.910Z,6.80
2023-02-22T16:56:09.627Z,7.00
2023-02-22T16:58:40.934Z,8.32
2023-02-22T17:01:08.505Z,9.90
2023-02-22T17:03:36.336Z,9.40
2023-02-22T17:06:03.585Z,8.75
2023-02-22T17:08:31.371Z,9.05
2023-02-22T17:11:00.620Z,8.93
2023-02-22T17:13:29.345Z,9.55
2023-02-22T17:15:58.221Z,9.40
2023-02-22T17:18:28.857Z,9.77
2023-02-22T17:20:56.943Z,10.27
2023-02-22T17:23:24.917Z,11.80
2023-02-22T17:26:04.688Z,12.68
2023-02-22T17:28:32.273Z,13.45
2023-02-22T17:31:01.978Z,13.40
2023-02-22T17:33:34.174Z,13.73
2023-02-22T17:36:03.965Z,13.90
2023-02-22T17:38:31.556Z,12.70
2023-02-22T17:41:01.470Z,14.48
2023-02-22T17:43:29.716Z,17.00
2023-02-22T17:45:57.628Z,15.82
2023-02-22T17:48:25.679Z,18.85
2023-02-22T17:50:54.048Z,17.40
2023-02-22T17:53:22.914Z,16.52
2023-02-22T17:55:50.890Z,14.68
2023-02-22T17:58:18.493Z,13.23
2023-02-22T18:00:50.151Z,13.50
2023-02-22T18:03:24.932Z,12.82
2023-02-22T18:06:00.030Z,15.23
2023-02-22T18:08:31.270Z,14.02
2023-02-22T18:10:58.521Z,14.32
2023-02-22T18:13:29.621Z,14.77
2023-02-22T18:16:00.230Z,14.25
2023-02-22T18:18:27.957Z,15.32
2023-02-22T18:20:59.485Z,13.82
2023-02-22T18:23:29.903Z,14.35
2023-02-22T18:26:10.547Z,13.52
2023-02-22T18:28:39.385Z,11.98
2023-02-22T18:31:09.321Z,12.95
2023-02-22T18:33:37.306Z,11.82
2023-02-22T18:36:04.838Z,10.75
2023-02-22T18:38:32.692Z,11.48
2023-02-22T18:41:03.635Z,11.35
2023-02-22T18:43:34.170Z,11.82
2023-02-22T18:46:19.548Z,11.57
2023-02-22T18:48:49.652Z,11.88
2023-02-22T18:51:17.663Z,11.85
2023-02-22T18:53:47.666Z,12.02
2023-02-22T18:56:21.886Z,11.32
2023-02-22T18:58:58.665Z,11.60
2023-02-22T19:01:27.412Z,11.77
2023-02-22T19:03:55.612Z,12.73
2023-02-22T19:06:23.169Z,13.15
2023-02-22T19:08:51.442Z,13.45
2023-02-22T19:11:24.465Z,16.30
2023-02-22T19:16:23.681Z,18.75
2023-02-22T19:18:53.025Z,20.35
2023-02-22T19:21:22.523Z,19.83
2023-02-22T19:23:50.360Z,18.45
2023-02-22T19:26:24.263Z,15.95
2023-02-22T19:28:54.478Z,15.15
2023-02-22T19:31:31.972Z,14.40
2023-02-22T19:34:11.152Z,13.65
2023-02-22T19:36:42.181Z,13.98
2023-02-22T19:39:09.741Z,13.70
2023-02-22T19:41:38.212Z,13.27
2023-02-22T19:44:06.451Z,12.93
2023-02-22T19:46:36.374Z,13.57
2023-02-22T19:49:04.920Z,13.25
2023-02-22T19:51:33.780Z,13.30
2023-02-22T19:54:05.629Z,13.30
2023-02-22T19:56:35.425Z,12.68
2023-02-22T19:59:21.314Z,12.90
2023-02-22T20:01:49.304Z,12.98
2023-02-22T20:04:21.683Z,14.88
2023-02-22T20:06:55.463Z,13.98
2023-02-22T20:09:36.365Z,13.35
2023-02-22T20:12:05.452Z,13.65
2023-02-22T20:14:34.034Z,13.10
2023-02-22T20:17:02.398Z,14.55
2023-02-22T20:19:29.889Z,17.42
2023-02-22T20:21:57.804Z,20.00
2023-02-22T20:24:25.806Z,21.90
2023-02-22T20:26:56.867Z,20.38
2023-02-22T20:29:31.827Z,20.20
2023-02-22T20:32:01.628Z,17.98
2023-02-22T20:34:33.726Z,16.13
2023-02-22T20:37:02.295Z,16.10
2023-02-22T20:39:30.012Z,15.93
2023-02-22T20:42:00.457Z,15.75
2023-02-22T20:44:27.596Z,15.63
2023-02-22T20:46:54.633Z,13.88
2023-02-22T20:49:22.159Z,14.43
2023-02-22T20:51:49.747Z,13.32
2023-02-22T20:54:17.946Z,13.55
2023-02-22T20:56:47.013Z,13.32
2023-02-22T20:59:17.665Z,12.90
2023-02-22T21:01:47.491Z,14.13
2023-02-22T21:04:14.860Z,14.63
2023-02-22T21:06:43.103Z,14.98
2023-02-22T21:09:17.570Z,16.15
2023-02-22T21:11:45.651Z,15.00
2023-02-22T21:14:18.572Z,16.23
2023-02-22T21:19:26.245Z,15.63
2023-02-22T21:21:55.669Z,18.38
2023-02-22T21:24:25.229Z,17.48
2023-02-22T21:26:53.014Z,17.48
2023-02-22T21:29:20.351Z,17.20
2023-02-22T21:31:47.984Z,17.30
2023-02-22T21:34:17.749Z,15.77
2023-02-22T21:36:46.102Z,15.07
2023-02-22T21:39:22.578Z,16.20
2023-02-22T21:41:52.194Z,15.82
2023-02-22T21:44:20.956Z,16.50
2023-02-22T21:46:49.807Z,15.32
2023-02-22T21:49:18.287Z,15.30
2023-02-22T21:51:45.682Z,14.35
2023-02-22T21:54:13.050Z,15.23
2023-02-22T21:56:43.128Z,15.20
2023-02-22T21:59:20.221Z,14.45
2023-02-22T22:01:56.200Z,14.93
2023-02-22T22:04:30.379Z,13.88
2023-02-22T22:07:00.422Z,14.45
2023-02-22T22:09:33.495Z,13.65
2023-02-22T22:12:05.275Z,13.18
2023-02-22T22:14:34.768Z,13.73
2023-02-22T22:17:05.459Z,12.88
2023-02-22T22:19:39.325Z,13.13
2023-02-22T22:22:08.079Z,12.68
2023-02-22T22:24:35.467Z,12.57
2023-02-22T22:27:06.426Z,12.77
2023-02-22T22:29:34.509Z,11.68
2023-02-22T22:32:02.875Z,12.98
2023-02-22T22:34:30.210Z,12.88
2023-02-22T22:36:58.148Z,11.98
2023-02-22T22:39:26.906Z,12.15
2023-02-22T22:41:55.016Z,11.65
2023-02-22T22:44:29.919Z,13.02
2023-02-22T22:46:56.888Z,11.95
2023-02-22T22:49:25.593Z,12.75
2023-02-22T22:51:53.883Z,12.07
2023-02-22T22:54:21.263Z,12.57
2023-02-22T22:56:48.235Z,11.82
2023-02-22T22:59:15.491Z,11.73
2023-02-22T23:01:45.048Z,11.68
2023-02-22T23:04:18.734Z,11.30
2023-02-22T23:06:51.970Z,10.52
2023-02-22T23:09:21.979Z,10.45
2023-02-22T23:24:46.402Z,15.05
2023-02-22T23:27:13.533Z,17.65
2023-02-22T23:29:42.855Z,16.58
2023-02-22T23:32:10.168Z,15.45
2023-02-22T23:34:41.118Z,13.15
2023-02-22T23:37:10.767Z,12.73
2023-02-22T23:39:38.463Z,11.93
2023-02-22T23:42:08.677Z,11.40
2023-02-22T23:44:35.991Z,12.38
2023-02-22T23:47:03.855Z,11.10
2023-02-22T23:49:35.583Z,11.50
2023-02-22T23:52:03.906Z,11.63
2023-02-22T23:54:40.252Z,12.00
2023-02-22T23:57:08.801Z,11.57
2023-02-22T23:59:36.557Z,12.30
